createdAt,value
2019-01-21T00:01:27.373Z,-2.50
2019-01-21T00:03:54.135Z,-2.50
2019-01-21T00:06:20.538Z,-2.40
2019-01-21T00:08:46.784Z,-2.40
2019-01-21T00:11:13.055Z,-2.40
2019-01-21T00:13:39.330Z,-2.40
2019-01-21T00:16:05.672Z,-2.40
2019-01-21T00:18:31.926Z,-2.40
2019-01-21T00:20:58.195Z,-2.30
2019-01-21T00:23:24.449Z,-2.40
2019-01-21T00:25:50.822Z,-2.50
2019-01-21T00:28:17.084Z,-2.40
2019-01-21T00:30:43.455Z,-2.30
2019-01-21T00:33:09.734Z,-2.40
2019-01-21T00:35:35.991Z,-2.50
2019-01-21T00:38:02.762Z,-2.50
2019-01-21T00:40:29.023Z,-2.50
2019-01-21T00:42:55.404Z,-2.50
2019-01-21T00:45:21.687Z,-2.80
2019-01-21T00:47:48.035Z,-2.80
2019-01-21T00:50:14.414Z,-2.50
2019-01-21T00:52:41.062Z,-2.40
2019-01-21T00:55:08.923Z,-2.40
2019-01-21T00:57:35.411Z,-2.40
2019-01-21T01:00:05.088Z,-2.40
2019-01-21T01:02:31.335Z,-2.30
2019-01-21T01:04:57.698Z,-2.40
2019-01-21T01:07:24.076Z,-2.50
2019-01-21T01:09:50.343Z,-2.50
2019-01-21T01:12:16.626Z,-2.50
2019-01-21T01:14:42.863Z,-2.50
2019-01-21T01:17:09.130Z,-2.50
2019-01-21T01:19:35.399Z,-2.50
2019-01-21T01:22:01.644Z,-2.50
2019-01-21T01:24:27.925Z,-2.50
2019-01-21T01:26:54.179Z,-2.50
2019-01-21T01:29:20.446Z,-2.60
2019-01-21T01:31:46.827Z,-2.70
2019-01-21T01:34:13.180Z,-2.70
2019-01-21T01:36:39.803Z,-2.70
2019-01-21T01:39:06.461Z,-2.60
2019-01-21T01:41:32.687Z,-2.60
2019-01-21T01:43:59.301Z,-2.60
2019-01-21T01:46:25.944Z,-2.50
2019-01-21T01:48:52.241Z,-2.40
2019-01-21T01:51:18.482Z,-2.50
2019-01-21T01:53:44.971Z,-2.40
2019-01-21T01:56:11.333Z,-2.30
2019-01-21T01:58:37.974Z,-2.30
2019-01-21T02:01:04.545Z,-2.30
2019-01-21T02:03:30.943Z,-2.30
2019-01-21T02:05:57.480Z,-2.30
2019-01-21T02:08:25.534Z,-2.30
2019-01-21T02:10:51.818Z,-2.40
2019-01-21T02:13:18.164Z,-2.50
2019-01-21T02:15:44.555Z,-2.50
2019-01-21T02:18:10.806Z,-2.60
2019-01-21T02:20:37.463Z,-2.50
2019-01-21T02:23:03.822Z,-2.60
2019-01-21T02:25:36.879Z,-2.50
2019-01-21T02:28:10.331Z,-2.50
2019-01-21T02:31:12.486Z,-2.50
2019-01-21T02:33:57.663Z,-2.50
2019-01-21T02:36:44.639Z,-2.50
2019-01-21T02:39:38.992Z,-2.50
2019-01-21T02:42:17.569Z,-2.60
2019-01-21T02:45:22.583Z,-2.80
2019-01-21T02:47:59.766Z,-2.80
2019-01-21T02:50:27.938Z,-2.70
2019-01-21T02:53:22.436Z,-2.70
2019-01-21T02:56:04.387Z,-2.60
2019-01-21T02:58:52.971Z,-2.60
2019-01-21T03:01:42.792Z,-2.60
2019-01-21T03:04:27.426Z,-2.50
2019-01-21T03:07:00.503Z,-2.40
2019-01-21T03:09:52.906Z,-2.40
2019-01-21T03:12:23.022Z,-2.40
2019-01-21T03:15:11.249Z,-2.40
2019-01-21T03:17:50.200Z,-2.40
2019-01-21T03:20:32.288Z,-2.40
2019-01-21T03:23:22.203Z,-2.50
2019-01-21T03:26:09.893Z,-2.40
2019-01-21T03:28:49.519Z,-2.40
2019-01-21T03:31:34.504Z,-2.40
2019-01-21T03:34:21.192Z,-2.50
2019-01-21T03:37:00.629Z,-2.60
2019-01-21T03:39:52.199Z,-2.70
2019-01-21T03:42:40.106Z,-2.70
2019-01-21T03:45:31.512Z,-2.70
2019-01-21T03:48:04.262Z,-2.70
2019-01-21T03:50:57.404Z,-2.70
2019-01-21T03:53:42.547Z,-2.70
2019-01-21T03:56:10.215Z,-2.60
2019-01-21T03:58:57.155Z,-2.50
2019-01-21T04:01:43.918Z,-2.50
2019-01-21T04:04:35.002Z,-2.40
2019-01-21T04:07:05.072Z,-2.40
2019-01-21T04:09:53.515Z,-2.40
2019-01-21T04:12:38.176Z,-2.50
2019-01-21T04:15:34.828Z,-2.60
2019-01-21T04:18:07.760Z,-2.60
2019-01-21T04:20:37.831Z,-2.60
2019-01-21T04:23:40.144Z,-2.60
2019-01-21T04:26:10.226Z,-2.60
2019-01-21T04:28:43.069Z,-2.60
2019-01-21T04:31:16.188Z,-2.70
2019-01-21T04:33:58.595Z,-2.70
2019-01-21T04:36:31.440Z,-2.70
2019-01-21T04:39:18.630Z,-2.70
2019-01-21T04:42:11.631Z,-2.80
2019-01-21T04:44:59.435Z,-2.70
2019-01-21T04:47:32.819Z,-2.80
2019-01-21T04:50:22.774Z,-2.80
2019-01-21T04:52:58.828Z,-2.80
2019-01-21T04:55:51.514Z,-2.80
2019-01-21T04:58:47.177Z,-2.90
2019-01-21T05:01:20.321Z,-2.90
2019-01-21T05:04:12.791Z,-2.70
2019-01-21T05:06:48.315Z,-2.70
2019-01-21T05:09:25.560Z,-2.80
2019-01-21T05:11:58.655Z,-2.70
2019-01-21T05:14:34.920Z,-2.70
2019-01-21T05:17:25.209Z,-2.80
2019-01-21T05:20:04.375Z,-2.70
2019-01-21T05:22:40.370Z,-2.80
2019-01-21T05:25:20.001Z,-2.80
2019-01-21T05:28:05.163Z,-2.90
2019-01-21T05:30:47.520Z,-2.90
2019-01-21T05:33:34.308Z,-2.90
2019-01-21T05:36:10.894Z,-2.90
2019-01-21T05:38:57.474Z,-2.90
2019-01-21T05:41:36.340Z,-2.90
2019-01-21T05:44:27.427Z,-3.00
2019-01-21T05:47:24.902Z,-3.00
2019-01-21T05:50:19.355Z,-3.00
2019-01-21T05:53:19.278Z,-3.00
2019-01-21T05:55:52.086Z,-3.00
2019-01-21T05:58:52.369Z,-3.00
2019-01-21T06:01:42.215Z,-2.90
2019-01-21T06:04:15.024Z,-2.90
2019-01-21T06:06:51.191Z,-2.90
2019-01-21T06:09:21.245Z,-3.00
2019-01-21T06:11:57.610Z,-3.00
2019-01-21T06:14:44.554Z,-3.00
2019-01-21T06:17:38.767Z,-2.90
2019-01-21T06:20:14.750Z,-3.00
2019-01-21T06:22:47.683Z,-2.90
2019-01-21T06:25:32.563Z,-2.90
2019-01-21T06:28:11.003Z,-2.90
2019-01-21T06:31:12.707Z,-3.00
2019-01-21T06:33:45.644Z,-3.10
2019-01-21T06:36:21.695Z,-3.10
2019-01-21T06:38:57.966Z,-3.10
2019-01-21T06:41:51.112Z,-3.10
2019-01-21T06:44:32.640Z,-3.20
2019-01-21T06:47:17.843Z,-3.20
2019-01-21T06:49:50.803Z,-3.10
2019-01-21T06:52:24.189Z,-3.10
2019-01-21T06:55:03.027Z,-3.10
2019-01-21T06:57:35.890Z,-3.10
2019-01-21T07:00:15.039Z,-3.10
2019-01-21T07:03:18.628Z,-3.20
2019-01-21T07:06:07.087Z,-3.20
2019-01-21T07:09:02.027Z,-3.10
2019-01-21T07:11:49.806Z,-2.90
2019-01-21T07:14:22.835Z,-3.10
2019-01-21T07:17:10.686Z,-3.20
2019-01-21T07:19:46.252Z,-3.10
2019-01-21T07:22:21.931Z,-3.20
2019-01-21T07:25:00.935Z,-3.30
2019-01-21T07:27:36.871Z,-3.30
2019-01-21T07:30:12.972Z,-3.20
2019-01-21T07:32:54.583Z,-3.20
2019-01-21T07:35:33.982Z,-3.10
2019-01-21T07:38:04.027Z,-3.00
2019-01-21T07:40:34.125Z,-2.90
2019-01-21T07:43:09.971Z,-2.90
2019-01-21T07:45:43.104Z,-3.00
2019-01-21T07:48:34.787Z,-3.00
2019-01-21T07:51:10.326Z,-3.10
2019-01-21T07:53:46.415Z,-3.00
2019-01-21T07:56:33.322Z,-3.00
2019-01-21T07:59:38.703Z,-3.00
2019-01-21T08:02:14.895Z,-3.10
2019-01-21T08:04:51.036Z,-3.10
2019-01-21T08:07:32.872Z,-3.10
2019-01-21T08:10:25.850Z,-3.10
2019-01-21T08:12:55.917Z,-3.10
2019-01-21T08:15:28.715Z,-3.20
2019-01-21T08:18:16.626Z,-3.30
2019-01-21T08:21:05.871Z,-3.30
2019-01-21T08:23:38.926Z,-3.30
2019-01-21T08:26:09.307Z,-3.20
2019-01-21T08:29:02.108Z,-3.20
2019-01-21T08:31:32.200Z,-3.10
2019-01-21T08:34:26.118Z,-3.00
2019-01-21T08:37:05.251Z,-3.00
2019-01-21T08:39:35.319Z,-3.00
2019-01-21T08:42:27.977Z,-3.10
2019-01-21T08:45:07.175Z,-3.10
2019-01-21T08:47:49.276Z,-3.00
2019-01-21T08:50:22.338Z,-2.90
2019-01-21T08:52:52.422Z,-2.90
2019-01-21T08:55:34.406Z,-3.00
2019-01-21T08:58:27.592Z,-3.00
2019-01-21T09:01:17.173Z,-3.10
2019-01-21T09:03:56.350Z,-3.00
2019-01-21T09:06:26.399Z,-3.00
2019-01-21T09:09:11.806Z,-2.90
2019-01-21T09:11:59.782Z,-3.00
2019-01-21T09:14:50.939Z,-3.00
2019-01-21T09:17:29.838Z,-2.90
2019-01-21T09:19:59.909Z,-2.80
2019-01-21T09:22:29.976Z,-2.80
2019-01-21T09:25:12.337Z,-2.90
2019-01-21T09:27:45.456Z,-2.90
2019-01-21T09:30:34.856Z,-2.90
2019-01-21T09:33:33.766Z,-3.00
2019-01-21T09:36:33.863Z,-2.90
2019-01-21T09:39:16.019Z,-2.90
2019-01-21T09:41:54.972Z,-2.90
2019-01-21T09:44:30.801Z,-3.00
2019-01-21T09:46:56.878Z,-3.10
2019-01-21T09:49:23.251Z,-3.00
2019-01-21T09:51:52.129Z,-2.90
2019-01-21T09:54:19.207Z,-2.90
2019-01-21T09:56:47.460Z,-3.10
2019-01-21T09:59:13.734Z,-3.00
2019-01-21T10:01:40.880Z,-2.90
2019-01-21T10:04:07.458Z,-2.90
2019-01-21T10:06:37.531Z,-2.70
2019-01-21T10:09:31.303Z,-2.80
2019-01-21T10:12:10.303Z,-2.70
2019-01-21T10:14:40.381Z,-2.80
2019-01-21T10:17:13.023Z,-2.80
2019-01-21T10:19:50.732Z,-2.80
2019-01-21T10:22:27.264Z,-2.70
2019-01-21T10:25:16.747Z,-2.80
2019-01-21T10:28:20.530Z,-2.80
2019-01-21T10:31:02.139Z,-2.90
2019-01-21T10:33:55.374Z,-2.80
2019-01-21T10:36:28.682Z,-2.90
2019-01-21T10:39:15.824Z,-2.90
2019-01-21T10:41:48.686Z,-2.80
2019-01-21T10:44:27.843Z,-2.80
2019-01-21T10:47:12.532Z,-2.70
2019-01-21T10:49:59.719Z,-2.90
2019-01-21T10:52:55.500Z,-2.80
2019-01-21T10:55:53.223Z,-2.90
2019-01-21T10:58:29.094Z,-2.90
2019-01-21T11:01:21.803Z,-3.00
2019-01-21T11:04:01.010Z,-3.00
2019-01-21T11:06:46.404Z,-2.90
2019-01-21T11:09:26.728Z,-2.80
2019-01-21T11:12:17.910Z,-2.80
2019-01-21T11:14:53.746Z,-2.80
2019-01-21T11:17:41.774Z,-2.70
2019-01-21T11:20:39.086Z,-2.80
2019-01-21T11:23:29.748Z,-2.80
2019-01-21T11:25:59.837Z,-2.70
2019-01-21T11:28:51.111Z,-2.70
2019-01-21T11:31:33.040Z,-2.70
2019-01-21T11:34:08.879Z,-2.60
2019-01-21T11:36:54.104Z,-2.70
2019-01-21T11:39:24.184Z,-2.60
2019-01-21T11:42:05.786Z,-2.70
2019-01-21T11:45:11.183Z,-2.80
2019-01-21T11:47:50.006Z,-2.70
2019-01-21T11:50:32.074Z,-2.60
2019-01-21T11:53:08.572Z,-2.60
2019-01-21T11:55:44.683Z,-2.70
2019-01-21T11:58:30.515Z,-2.70
2019-01-21T12:01:03.641Z,-2.60
2019-01-21T12:03:48.806Z,-2.50
2019-01-21T12:06:17.863Z,-2.70
2019-01-21T12:09:09.304Z,-2.90
2019-01-21T12:11:42.788Z,-2.80
2019-01-21T12:14:12.859Z,-2.80
2019-01-21T12:17:01.370Z,-2.80
2019-01-21T12:20:03.520Z,-2.80
2019-01-21T12:22:36.618Z,-2.70
2019-01-21T12:25:38.956Z,-2.70
2019-01-21T12:28:18.024Z,-2.60
2019-01-21T12:30:48.113Z,-2.50
2019-01-21T12:33:23.647Z,-2.50
2019-01-21T12:36:08.852Z,-2.50
2019-01-21T12:39:01.753Z,-2.50
2019-01-21T12:41:55.982Z,-2.40
2019-01-21T12:44:48.311Z,-2.40
2019-01-21T12:47:21.158Z,-2.50
2019-01-21T12:49:54.009Z,-2.50
2019-01-21T12:52:24.103Z,-2.50
2019-01-21T12:55:02.940Z,-2.40
2019-01-21T12:57:48.377Z,-2.40
2019-01-21T13:00:30.328Z,-2.30
2019-01-21T13:03:15.535Z,-2.30
2019-01-21T13:06:10.206Z,-2.40
2019-01-21T13:08:52.559Z,-2.40
2019-01-21T13:11:28.495Z,-2.40
2019-01-21T13:14:23.006Z,-2.40
2019-01-21T13:16:53.075Z,-2.40
2019-01-21T13:19:53.460Z,-2.30
2019-01-21T13:22:32.503Z,-2.30
2019-01-21T13:27:50.872Z,-2.30
2019-01-21T13:30:20.924Z,-2.20
2019-01-21T13:32:51.028Z,-2.20
2019-01-21T13:35:23.904Z,-2.30
2019-01-21T13:37:53.990Z,-2.40
2019-01-21T13:40:33.135Z,-2.40
2019-01-21T13:43:09.249Z,-2.40
2019-01-21T13:46:12.925Z,-2.40
2019-01-21T13:48:54.655Z,-2.40
2019-01-21T13:51:43.071Z,-2.20
2019-01-21T13:54:15.894Z,-2.30
2019-01-21T13:56:45.968Z,-2.40
2019-01-21T13:59:36.970Z,-2.50
2019-01-21T14:02:10.182Z,-2.50
2019-01-21T14:05:01.592Z,-2.40
2019-01-21T14:07:51.418Z,-2.40
2019-01-21T14:10:48.727Z,-2.40
2019-01-21T14:13:26.384Z,-2.40
2019-01-21T14:16:13.158Z,-2.40
2019-01-21T14:18:52.599Z,-2.40
2019-01-21T14:21:31.197Z,-2.40
2019-01-21T14:24:15.983Z,-2.50
2019-01-21T14:26:52.198Z,-2.70
2019-01-21T14:29:37.348Z,-2.60
2019-01-21T14:32:16.132Z,-2.60
2019-01-21T14:34:46.202Z,-2.50
2019-01-21T14:37:25.258Z,-2.50
2019-01-21T14:39:57.923Z,-2.50
2019-01-21T14:42:27.990Z,-2.60
2019-01-21T14:45:12.679Z,-2.50
2019-01-21T14:47:42.741Z,-2.50
2019-01-21T14:50:13.191Z,-2.60
2019-01-21T14:52:55.645Z,-2.70
2019-01-21T14:55:28.423Z,-2.70
2019-01-21T14:58:10.526Z,-2.70
2019-01-21T15:00:40.596Z,-2.60
2019-01-21T15:03:25.291Z,-2.60
2019-01-21T15:05:58.102Z,-2.60
2019-01-21T15:08:28.447Z,-2.60
2019-01-21T15:11:21.235Z,-2.50
2019-01-21T15:14:00.220Z,-2.50
2019-01-21T15:17:00.443Z,-2.50
2019-01-21T15:19:29.939Z,-2.50
2019-01-21T15:22:20.783Z,-2.50
2019-01-21T15:25:26.038Z,-2.50
2019-01-21T15:28:12.833Z,-2.50
2019-01-21T15:30:42.894Z,-2.70
2019-01-21T15:33:32.506Z,-2.70
2019-01-21T15:36:17.723Z,-2.80
2019-01-21T15:39:05.630Z,-2.80
2019-01-21T15:41:39.223Z,-2.80
2019-01-21T15:44:12.346Z,-2.90
2019-01-21T15:47:00.112Z,-3.10
2019-01-21T15:49:32.738Z,-3.30
2019-01-21T15:52:08.651Z,-3.40
2019-01-21T15:54:44.677Z,-3.40
2019-01-21T15:57:24.198Z,-3.40
2019-01-21T16:00:27.755Z,-3.30
2019-01-21T16:03:03.315Z,-3.30
2019-01-21T16:05:33.375Z,-3.20
2019-01-21T16:08:03.443Z,-3.10
2019-01-21T16:10:36.075Z,-3.00
2019-01-21T16:13:24.420Z,-2.90
2019-01-21T16:16:12.115Z,-2.90
2019-01-21T16:18:45.189Z,-2.90
2019-01-21T16:21:41.123Z,-2.80
2019-01-21T16:24:35.653Z,-2.70
2019-01-21T16:27:06.007Z,-2.80
2019-01-21T16:30:00.266Z,-2.80
2019-01-21T16:32:29.386Z,-2.80
2019-01-21T16:35:20.590Z,-2.80
2019-01-21T16:37:50.674Z,-2.70
2019-01-21T16:40:37.270Z,-2.90
2019-01-21T16:43:03.652Z,-3.00
2019-01-21T16:45:30.015Z,-2.90
2019-01-21T16:47:56.380Z,-2.90
2019-01-21T16:50:22.869Z,-2.90
2019-01-21T16:52:49.136Z,-3.00
2019-01-21T16:55:15.508Z,-3.10
2019-01-21T16:57:41.805Z,-3.10
2019-01-21T17:00:11.368Z,-3.10
2019-01-21T17:02:37.719Z,-3.00
2019-01-21T17:05:07.406Z,-3.00
2019-01-21T17:07:33.776Z,-3.00
2019-01-21T17:10:00.120Z,-3.10
2019-01-21T17:12:26.514Z,-3.00
2019-01-21T17:14:57.406Z,-3.10
2019-01-21T17:17:20.843Z,-3.10
2019-01-21T17:19:47.206Z,-3.30
2019-01-21T17:22:13.563Z,-3.20
2019-01-21T17:24:39.847Z,-3.30
2019-01-21T17:27:06.984Z,-3.20
2019-01-21T17:29:33.281Z,-3.20
2019-01-21T17:31:59.663Z,-3.20
2019-01-21T17:34:26.023Z,-3.10
2019-01-21T17:36:52.298Z,-3.10
2019-01-21T17:39:18.539Z,-3.20
2019-01-21T17:41:44.803Z,-3.20
2019-01-21T17:44:11.079Z,-3.20
2019-01-21T17:46:37.439Z,-3.20
2019-01-21T17:49:04.098Z,-3.30
2019-01-21T17:51:33.820Z,-3.30
2019-01-21T17:53:58.455Z,-3.30
2019-01-21T17:56:24.735Z,-3.30
2019-01-21T17:58:51.008Z,-3.10
2019-01-21T18:01:17.255Z,-3.00
2019-01-21T18:03:43.527Z,-3.10
2019-01-21T18:06:09.895Z,-3.30
2019-01-21T18:08:36.167Z,-3.20
2019-01-21T18:11:02.746Z,-3.30
2019-01-21T18:13:29.343Z,-3.30
2019-01-21T18:15:55.609Z,-3.40
2019-01-21T18:18:21.875Z,-3.50
2019-01-21T18:20:48.124Z,-3.40
2019-01-21T18:23:14.394Z,-3.30
2019-01-21T18:25:40.659Z,-3.20
2019-01-21T18:28:07.114Z,-3.30
2019-01-21T18:30:33.841Z,-3.30
2019-01-21T18:33:00.084Z,-3.30
2019-01-21T18:35:26.380Z,-3.30
2019-01-21T18:37:53.536Z,-3.20
2019-01-21T18:40:20.395Z,-3.10
2019-01-21T18:42:47.878Z,-3.10
2019-01-21T18:45:17.544Z,-3.00
2019-01-21T18:47:43.851Z,-3.20
2019-01-21T18:50:10.812Z,-3.20
2019-01-21T18:52:37.167Z,-3.30
2019-01-21T18:55:05.943Z,-3.30
2019-01-21T18:57:32.195Z,-3.30
2019-01-21T18:59:58.552Z,-3.30
2019-01-21T19:02:24.845Z,-3.40
2019-01-21T19:04:51.102Z,-3.40
2019-01-21T19:07:17.378Z,-3.40
2019-01-21T19:09:43.663Z,-3.40
2019-01-21T19:12:09.900Z,-3.40
2019-01-21T19:14:36.211Z,-3.40
2019-01-21T19:17:02.756Z,-3.40
2019-01-21T19:19:29.023Z,-3.50
2019-01-21T19:21:55.285Z,-3.50
2019-01-21T19:24:21.547Z,-3.40
2019-01-21T19:26:47.816Z,-3.50
2019-01-21T19:29:14.447Z,-3.40
2019-01-21T19:31:40.810Z,-3.40
2019-01-21T19:34:07.173Z,-3.50
2019-01-21T19:36:33.439Z,-3.50
2019-01-21T19:38:59.692Z,-3.40
2019-01-21T19:41:26.511Z,-3.50
2019-01-21T19:43:52.851Z,-3.50
2019-01-21T19:46:19.130Z,-3.40
2019-01-21T19:48:45.396Z,-3.50
2019-01-21T19:51:11.660Z,-3.60
2019-01-21T19:53:37.935Z,-3.70
2019-01-21T19:56:04.299Z,-3.60
2019-01-21T19:58:30.642Z,-3.50
2019-01-21T20:00:57.238Z,-3.50
2019-01-21T20:03:23.631Z,-3.50
2019-01-21T20:05:49.984Z,-3.50
2019-01-21T20:08:16.229Z,-3.40
2019-01-21T20:10:42.502Z,-3.30
2019-01-21T20:13:09.268Z,-3.40
2019-01-21T20:15:35.646Z,-3.50
2019-01-21T20:18:02.316Z,-3.40
2019-01-21T20:20:32.384Z,-3.30
2019-01-21T20:22:58.657Z,-3.30
2019-01-21T20:25:25.203Z,-3.20
2019-01-21T20:27:51.559Z,-3.30
2019-01-21T20:30:20.572Z,-3.10
2019-01-21T20:32:46.817Z,-3.20
2019-01-21T20:35:13.583Z,-3.20
2019-01-21T20:37:39.961Z,-3.20
2019-01-21T20:40:12.807Z,-3.20
2019-01-21T20:42:39.111Z,-3.30
2019-01-21T20:45:08.856Z,-3.30
2019-01-21T20:47:35.127Z,-3.20
2019-01-21T20:50:01.608Z,-3.30
2019-01-21T20:52:27.955Z,-3.40
2019-01-21T20:54:54.670Z,-3.50
2019-01-21T20:57:21.003Z,-3.40
2019-01-21T20:59:47.248Z,-3.50
2019-01-21T21:02:13.610Z,-3.40
2019-01-21T21:04:39.903Z,-3.40
2019-01-21T21:07:06.168Z,-3.40
2019-01-21T21:09:32.743Z,-3.50
2019-01-21T21:11:59.029Z,-3.40
2019-01-21T21:14:25.347Z,-3.40
2019-01-21T21:16:51.582Z,-3.40
2019-01-21T21:19:17.902Z,-3.60
2019-01-21T21:21:44.139Z,-3.60
2019-01-21T21:24:10.880Z,-3.60
2019-01-21T21:26:37.151Z,-3.60
2019-01-21T21:29:03.515Z,-3.70
2019-01-21T21:31:29.790Z,-3.70
2019-01-21T21:33:56.067Z,-3.70
2019-01-21T21:36:22.335Z,-3.60
2019-01-21T21:38:48.618Z,-3.60
2019-01-21T21:41:14.998Z,-3.60
2019-01-21T21:43:41.270Z,-3.70
2019-01-21T21:46:07.577Z,-3.80
2019-01-21T21:48:33.859Z,-3.90
2019-01-21T21:51:00.125Z,-3.90
2019-01-21T21:53:26.411Z,-3.80
2019-01-21T21:55:52.665Z,-3.80
2019-01-21T21:58:18.951Z,-3.80
2019-01-21T22:00:45.219Z,-3.70
2019-01-21T22:03:11.483Z,-3.80
2019-01-21T22:05:37.774Z,-3.80
2019-01-21T22:08:04.337Z,-3.80
2019-01-21T22:10:31.013Z,-3.80
2019-01-21T22:12:57.378Z,-3.90
2019-01-21T22:15:24.384Z,-3.80
2019-01-21T22:17:50.881Z,-3.80
2019-01-21T22:20:19.433Z,-3.90
2019-01-21T22:22:45.794Z,-3.90
2019-01-21T22:25:12.391Z,-4.00
2019-01-21T22:27:38.655Z,-3.90
2019-01-21T22:30:14.230Z,-3.90
2019-01-21T22:32:40.499Z,-4.00
2019-01-21T22:35:07.193Z,-4.00
2019-01-21T22:37:33.454Z,-3.90
2019-01-21T22:39:59.931Z,-3.90
2019-01-21T22:42:26.175Z,-3.90
2019-01-21T22:44:52.447Z,-3.90
2019-01-21T22:47:18.711Z,-3.90
2019-01-21T22:49:44.984Z,-3.90
2019-01-21T22:52:11.359Z,-3.90
2019-01-21T22:54:37.621Z,-4.00
2019-01-21T22:57:03.879Z,-3.90
2019-01-21T22:59:30.148Z,-4.00
2019-01-21T23:01:56.403Z,-4.00
2019-01-21T23:04:22.650Z,-4.00
2019-01-21T23:06:48.930Z,-4.00
2019-01-21T23:09:15.280Z,-4.10
2019-01-21T23:11:41.958Z,-4.10
2019-01-21T23:14:08.428Z,-4.10
2019-01-21T23:16:34.664Z,-4.10
2019-01-21T23:19:00.950Z,-4.10
2019-01-21T23:21:27.207Z,-4.00
2019-01-21T23:23:53.467Z,-4.00
2019-01-21T23:26:19.764Z,-4.00
2019-01-21T23:28:46.769Z,-4.00
2019-01-21T23:31:13.060Z,-4.00
2019-01-21T23:33:39.315Z,-4.00
2019-01-21T23:36:05.575Z,-4.00
2019-01-21T23:38:32.207Z,-4.20
2019-01-21T23:40:58.580Z,-4.10
2019-01-21T23:43:24.926Z,-4.20
2019-01-21T23:45:51.385Z,-4.20
2019-01-21T23:48:17.644Z,-4.20
2019-01-21T23:50:44.014Z,-4.30
2019-01-21T23:53:10.494Z,-4.30
2019-01-21T23:55:37.108Z,-4.20
2019-01-21T23:58:03.476Z,-4.20
